Terminal Aerodrome Forecast
Issued by NWS

Home | Current Version | Previous Version | Text Only | Print | Product List | Glossary On
Versions: 1 2 3 4 5 6 7 8 9 10 11 12 13 14 15 16 17 18 19 20 21 22 23 24 25 26 27 28 29
000
FTUS43 KOAX 280522 CCA
TAFSNY
TAF COR
KSNY 280522Z 2806/0106 17012KT P6SM SCT007
      TEMPO 2806/2808 BKN007
     FM281100 16010KT 3SM BR SCT008 OVC015
     FM281800 16008KT P6SM SCT008 BKN035=

USA.gov is the U.S. government's official web portal to all federal, state and local government web resources and services.